createdAt,value
2022-12-25T00:00:06.357Z,52.30
2022-12-25T00:02:35.518Z,52.40
2022-12-25T00:05:03.376Z,52.40
2022-12-25T00:07:31.090Z,52.40
2022-12-25T00:09:58.762Z,52.40
2022-12-25T00:12:26.489Z,52.40
2022-12-25T00:14:54.160Z,52.40
2022-12-25T00:17:21.822Z,52.40
2022-12-25T00:19:50.823Z,52.40
2022-12-25T00:22:18.472Z,52.40
2022-12-25T00:24:47.745Z,52.50
2022-12-25T00:27:15.432Z,52.50
2022-12-25T00:29:43.103Z,52.50
2022-12-25T00:32:10.778Z,52.50
2022-12-25T00:34:38.433Z,52.50
2022-12-25T00:37:07.481Z,52.40
2022-12-25T00:39:35.172Z,52.40
2022-12-25T00:42:20.850Z,52.40
2022-12-25T00:44:48.679Z,52.40
2022-12-25T00:47:16.453Z,52.40
2022-12-25T00:49:44.346Z,52.40
2022-12-25T00:52:13.331Z,52.40
2022-12-25T00:54:40.991Z,52.40
2022-12-25T00:57:08.653Z,52.40
2022-12-25T00:59:36.396Z,52.40
2022-12-25T01:02:18.120Z,52.40
2022-12-25T01:04:45.895Z,52.40
2022-12-25T01:07:16.736Z,52.40
2022-12-25T01:10:02.111Z,52.40
2022-12-25T01:12:29.837Z,52.40
2022-12-25T01:14:57.509Z,52.40
2022-12-25T01:17:25.231Z,52.40
2022-12-25T01:19:52.911Z,52.40
2022-12-25T01:22:21.943Z,52.40
2022-12-25T01:24:49.614Z,52.40
2022-12-25T01:27:17.316Z,52.40
2022-12-25T01:29:46.083Z,52.40
2022-12-25T01:32:13.917Z,52.40
2022-12-25T01:34:41.619Z,52.40
2022-12-25T01:37:09.282Z,52.40
2022-12-25T01:39:38.395Z,52.50
2022-12-25T01:42:06.149Z,52.40
2022-12-25T01:45:23.563Z,52.40
2022-12-25T01:47:51.387Z,52.40
2022-12-25T01:50:19.211Z,52.50
2022-12-25T01:52:46.963Z,52.50
2022-12-25T01:55:15.978Z,52.50
2022-12-25T01:57:43.647Z,52.50
2022-12-25T02:00:12.417Z,52.50
2022-12-25T02:02:40.170Z,52.50
2022-12-25T02:05:10.766Z,52.50
2022-12-25T02:07:41.100Z,52.60
2022-12-25T02:10:09.690Z,52.60
2022-12-25T02:12:38.723Z,52.60
2022-12-25T02:15:08.962Z,52.60
2022-12-25T02:17:39.378Z,52.60
2022-12-25T02:20:21.791Z,52.60
2022-12-25T02:22:55.657Z,52.60
2022-12-25T02:25:31.730Z,52.60
2022-12-25T02:28:13.545Z,52.60
2022-12-25T02:30:43.370Z,52.60
2022-12-25T02:33:31.890Z,52.60
2022-12-25T02:35:59.591Z,52.60
2022-12-25T02:38:31.510Z,52.70
2022-12-25T02:40:59.176Z,52.70
2022-12-25T02:43:47.264Z,52.70
2022-12-25T02:46:34.218Z,52.70
2022-12-25T02:49:21.618Z,52.70
2022-12-25T02:52:13.503Z,52.70
2022-12-25T02:55:00.827Z,52.70
2022-12-25T02:57:48.174Z,52.70
2022-12-25T03:00:35.135Z,52.70
2022-12-25T03:03:20.637Z,52.70
2022-12-25T03:06:05.993Z,52.70
2022-12-25T03:08:37.522Z,52.70
2022-12-25T03:11:23.412Z,52.70
2022-12-25T03:13:52.508Z,52.70
2022-12-25T03:16:51.397Z,52.70
2022-12-25T03:19:36.766Z,52.80
2022-12-25T03:22:27.713Z,52.80
2022-12-25T03:25:13.825Z,52.80
2022-12-25T03:27:42.523Z,52.80
2022-12-25T03:30:29.324Z,52.80
2022-12-25T03:33:01.863Z,52.80
2022-12-25T03:35:44.116Z,52.80
2022-12-25T03:38:40.013Z,52.80
2022-12-25T03:41:28.169Z,52.80
2022-12-25T03:44:30.279Z,52.80
2022-12-25T03:47:19.584Z,52.80
2022-12-25T03:50:08.409Z,52.70
2022-12-25T03:52:53.606Z,52.70
2022-12-25T03:55:38.951Z,52.70
2022-12-25T03:58:24.427Z,52.70
2022-12-25T04:01:09.612Z,52.70
2022-12-25T04:03:55.048Z,53.30
2022-12-25T04:06:41.777Z,52.60
2022-12-25T04:09:27.134Z,52.70
2022-12-25T04:12:12.692Z,52.70
2022-12-25T04:15:06.466Z,52.60
2022-12-25T04:17:51.882Z,52.60
2022-12-25T04:20:37.224Z,52.60
2022-12-25T04:23:23.948Z,52.60
2022-12-25T04:26:09.396Z,52.60
2022-12-25T04:28:54.737Z,52.60
2022-12-25T04:31:40.147Z,52.60
2022-12-25T04:34:25.501Z,52.60
2022-12-25T04:36:53.206Z,52.60
2022-12-25T04:39:22.231Z,52.60
2022-12-25T04:41:49.912Z,52.70
2022-12-25T04:44:17.584Z,52.60
2022-12-25T04:46:45.342Z,52.60
2022-12-25T04:49:13.122Z,52.60
2022-12-25T04:51:40.832Z,52.70
2022-12-25T04:54:08.549Z,53.20
2022-12-25T04:56:43.444Z,52.70
2022-12-25T04:59:13.163Z,52.70
2022-12-25T05:01:41.134Z,52.70
2022-12-25T05:04:08.937Z,52.70
2022-12-25T05:06:36.621Z,52.70
2022-12-25T05:09:04.294Z,52.60
2022-12-25T05:11:31.968Z,52.70
2022-12-25T05:14:00.994Z,52.60
2022-12-25T05:16:29.032Z,52.70
2022-12-25T05:18:56.802Z,52.70
2022-12-25T05:21:24.583Z,52.70
2022-12-25T05:23:52.440Z,52.70
2022-12-25T05:26:23.016Z,52.70
2022-12-25T05:28:50.932Z,52.70
2022-12-25T05:31:19.971Z,52.70
2022-12-25T05:33:50.233Z,52.70
2022-12-25T05:36:18.307Z,52.70
2022-12-25T05:38:45.982Z,52.70
2022-12-25T05:41:13.676Z,52.60
2022-12-25T05:43:41.359Z,52.60
2022-12-25T05:46:09.849Z,52.60
2022-12-25T05:48:38.999Z,52.60
2022-12-25T05:51:07.365Z,52.50
2022-12-25T05:53:35.099Z,52.50
2022-12-25T05:56:03.267Z,52.60
2022-12-25T05:58:31.041Z,52.60
2022-12-25T06:00:58.735Z,52.50
2022-12-25T06:03:26.594Z,52.60
2022-12-25T06:05:55.735Z,52.50
2022-12-25T06:08:23.479Z,52.50
2022-12-25T06:10:51.161Z,52.50
2022-12-25T06:13:18.834Z,52.50
2022-12-25T06:15:46.579Z,52.50
2022-12-25T06:18:14.273Z,52.50
2022-12-25T06:20:42.147Z,52.50
2022-12-25T06:23:11.193Z,52.50
2022-12-25T06:25:39.701Z,52.40
2022-12-25T06:28:07.552Z,52.50
2022-12-25T06:30:35.252Z,52.40
2022-12-25T06:33:03.534Z,52.50
2022-12-25T06:35:31.186Z,52.50
2022-12-25T06:37:58.863Z,52.50
2022-12-25T06:40:27.939Z,52.50
2022-12-25T06:42:55.647Z,52.50
2022-12-25T06:45:23.505Z,52.50
2022-12-25T06:47:51.363Z,52.50
2022-12-25T06:50:19.304Z,52.50
2022-12-25T06:52:46.968Z,52.50
2022-12-25T06:55:14.661Z,52.50
2022-12-25T06:57:43.680Z,52.50
2022-12-25T07:00:12.316Z,52.50
2022-12-25T07:02:40.159Z,52.50
2022-12-25T07:05:08.597Z,52.50
2022-12-25T07:07:36.368Z,52.60
2022-12-25T07:10:04.186Z,52.50
2022-12-25T07:12:31.879Z,52.60
2022-12-25T07:15:00.952Z,52.60
2022-12-25T07:17:28.637Z,52.50
2022-12-25T07:19:57.099Z,52.50
2022-12-25T07:22:24.894Z,52.60
2022-12-25T07:24:52.627Z,52.50
2022-12-25T07:27:20.359Z,52.50
2022-12-25T07:29:48.076Z,52.60
2022-12-25T07:32:17.199Z,52.60
2022-12-25T07:34:44.965Z,52.50
2022-12-25T07:37:12.884Z,52.50
2022-12-25T07:39:40.676Z,52.50
2022-12-25T07:42:08.699Z,52.50
2022-12-25T07:44:36.388Z,52.50
2022-12-25T07:47:04.143Z,52.50
2022-12-25T07:49:33.182Z,52.50
2022-12-25T07:52:00.832Z,52.50
2022-12-25T07:54:28.515Z,52.50
2022-12-25T07:56:56.207Z,52.40
2022-12-25T07:59:23.951Z,52.40
2022-12-25T08:01:51.891Z,52.40
2022-12-25T08:04:19.822Z,52.40
2022-12-25T08:06:48.879Z,52.40
2022-12-25T08:09:16.537Z,52.40
2022-12-25T08:11:45.844Z,52.40
2022-12-25T08:14:13.633Z,52.40
2022-12-25T08:16:42.174Z,52.40
2022-12-25T08:19:10.115Z,52.40
2022-12-25T08:21:38.095Z,52.50
2022-12-25T08:24:07.616Z,52.40
2022-12-25T08:26:35.310Z,52.40
2022-12-25T08:29:03.210Z,52.40
2022-12-25T08:31:31.132Z,52.40
2022-12-25T08:33:59.458Z,52.50
2022-12-25T08:36:27.421Z,52.50
2022-12-25T08:39:02.205Z,52.50
2022-12-25T08:41:31.934Z,52.40
2022-12-25T08:43:59.623Z,52.40
2022-12-25T08:46:27.377Z,52.40
2022-12-25T08:48:56.557Z,52.40
2022-12-25T08:51:24.865Z,52.40
2022-12-25T08:53:53.464Z,52.50
2022-12-25T08:56:21.168Z,52.50
2022-12-25T08:58:50.230Z,52.50
2022-12-25T09:01:17.962Z,52.50
2022-12-25T09:03:45.748Z,52.50
2022-12-25T09:06:15.340Z,52.50
2022-12-25T09:08:48.687Z,52.50
2022-12-25T09:11:17.185Z,52.40
2022-12-25T09:13:44.871Z,52.60
2022-12-25T09:16:15.502Z,52.80
2022-12-25T09:18:43.222Z,52.90
2022-12-25T09:21:11.968Z,52.90
2022-12-25T09:23:39.693Z,52.90
2022-12-25T09:26:08.665Z,52.90
2022-12-25T09:28:36.362Z,52.90
2022-12-25T09:31:04.193Z,52.80
2022-12-25T09:33:33.281Z,52.80
2022-12-25T09:36:01.749Z,52.70
2022-12-25T09:38:29.595Z,52.70
2022-12-25T09:41:00.899Z,52.60
2022-12-25T09:43:28.712Z,52.60
2022-12-25T09:45:56.407Z,52.50
2022-12-25T09:48:24.119Z,52.50
2022-12-25T09:50:54.102Z,52.50
2022-12-25T09:53:23.289Z,52.40
2022-12-25T09:55:54.269Z,52.30
2022-12-25T09:58:21.996Z,52.30
2022-12-25T10:00:52.392Z,52.30
2022-12-25T10:03:36.971Z,52.20
2022-12-25T10:06:12.354Z,52.10
2022-12-25T10:08:52.175Z,52.10
2022-12-25T10:11:33.030Z,52.00
2022-12-25T10:14:07.968Z,52.00
2022-12-25T10:16:38.746Z,52.00
2022-12-25T10:19:12.094Z,52.00
2022-12-25T10:21:41.113Z,51.90
2022-12-25T10:24:12.093Z,52.00
2022-12-25T10:26:39.805Z,52.00
2022-12-25T10:29:13.083Z,51.90
2022-12-25T10:31:41.703Z,52.00
2022-12-25T10:34:10.258Z,51.90
2022-12-25T10:36:37.962Z,51.90
2022-12-25T10:39:06.971Z,51.90
2022-12-25T10:41:43.946Z,51.80
2022-12-25T10:44:14.818Z,51.80
2022-12-25T10:46:42.716Z,51.80
2022-12-25T10:49:14.458Z,51.80
2022-12-25T10:51:42.207Z,51.70
2022-12-25T10:54:21.315Z,51.70
2022-12-25T10:56:56.304Z,51.60
2022-12-25T10:59:24.076Z,51.60
2022-12-25T11:01:55.252Z,51.60
2022-12-25T11:04:26.199Z,51.60
2022-12-25T11:06:58.495Z,51.60
2022-12-25T11:09:27.533Z,51.60
2022-12-25T11:11:55.245Z,51.60
2022-12-25T11:14:23.128Z,51.60
2022-12-25T11:16:51.237Z,51.50
2022-12-25T11:19:25.636Z,51.50
2022-12-25T11:21:54.640Z,51.50
2022-12-25T11:24:23.376Z,51.50
2022-12-25T11:26:53.214Z,52.10
2022-12-25T11:29:25.456Z,51.50
2022-12-25T11:31:53.188Z,52.00
2022-12-25T11:34:28.198Z,51.50
2022-12-25T11:36:55.884Z,51.40
2022-12-25T11:39:24.712Z,51.40
2022-12-25T11:41:55.013Z,51.40
2022-12-25T11:44:35.754Z,51.40
2022-12-25T11:47:05.155Z,51.30
2022-12-25T11:49:32.892Z,51.40
2022-12-25T11:52:00.602Z,51.40
2022-12-25T11:54:30.991Z,51.40
2022-12-25T11:57:01.130Z,51.40
2022-12-25T11:59:30.319Z,51.90
2022-12-25T12:01:59.061Z,51.30
2022-12-25T12:04:31.838Z,51.30
2022-12-25T12:07:02.372Z,51.30
2022-12-25T12:09:35.339Z,51.30
2022-12-25T12:12:07.572Z,51.20
2022-12-25T12:14:43.080Z,51.20
2022-12-25T12:17:11.445Z,51.20
2022-12-25T12:19:39.313Z,51.20
2022-12-25T12:22:07.030Z,51.20
2022-12-25T12:24:35.951Z,51.20
2022-12-25T12:27:06.030Z,51.20
2022-12-25T12:29:36.774Z,51.20
2022-12-25T12:32:04.976Z,51.20
2022-12-25T12:34:34.298Z,51.30
2022-12-25T12:37:02.698Z,51.20
2022-12-25T12:39:35.769Z,51.20
2022-12-25T12:42:04.970Z,51.20
2022-12-25T12:44:33.183Z,51.20
2022-12-25T12:47:00.871Z,51.20
2022-12-25T12:49:29.388Z,51.20
2022-12-25T12:52:04.462Z,51.20
2022-12-25T12:54:32.134Z,51.10
2022-12-25T12:57:00.510Z,51.20
2022-12-25T12:59:36.040Z,51.20
2022-12-25T13:02:10.027Z,51.10
2022-12-25T13:04:49.115Z,51.10
2022-12-25T13:07:24.720Z,51.00
2022-12-25T13:10:03.952Z,51.10
2022-12-25T13:12:31.667Z,51.00
2022-12-25T13:15:02.864Z,51.00
2022-12-25T13:17:30.734Z,51.00
2022-12-25T13:19:59.240Z,51.00
2022-12-25T13:22:30.859Z,51.00
2022-12-25T13:25:00.323Z,51.00
2022-12-25T13:27:29.575Z,51.00
2022-12-25T13:29:57.312Z,51.00
2022-12-25T13:32:27.156Z,51.00
2022-12-25T13:34:54.903Z,51.00
2022-12-25T13:37:23.399Z,50.90
2022-12-25T13:39:52.533Z,50.90
2022-12-25T13:42:21.517Z,50.90
2022-12-25T13:44:50.144Z,50.90
2022-12-25T13:47:22.933Z,50.90
2022-12-25T13:49:52.485Z,51.00
2022-12-25T13:52:23.632Z,51.00
2022-12-25T13:54:59.200Z,51.00
2022-12-25T13:57:29.917Z,50.90
2022-12-25T13:59:57.584Z,51.00
2022-12-25T14:02:28.953Z,51.00
2022-12-25T14:04:58.050Z,51.00
2022-12-25T14:07:26.047Z,50.90
2022-12-25T14:09:56.310Z,51.00
2022-12-25T14:12:24.140Z,51.00
2022-12-25T14:14:52.442Z,50.90
2022-12-25T14:17:20.334Z,51.00
2022-12-25T14:19:56.173Z,51.00
2022-12-25T14:22:25.186Z,51.00
2022-12-25T14:24:52.844Z,51.00
2022-12-25T14:27:21.783Z,51.00
2022-12-25T14:29:50.070Z,51.00
2022-12-25T14:32:18.713Z,50.90
2022-12-25T14:34:47.244Z,51.00
2022-12-25T14:37:17.125Z,51.00
2022-12-25T14:39:47.923Z,51.00
2022-12-25T14:42:20.734Z,51.00
2022-12-25T14:44:57.874Z,50.90
2022-12-25T14:47:25.571Z,50.90
2022-12-25T14:49:54.456Z,50.90
2022-12-25T14:52:23.842Z,50.90
2022-12-25T14:54:55.202Z,50.90
2022-12-25T14:57:28.034Z,50.90
2022-12-25T14:59:57.407Z,50.90
2022-12-25T15:02:25.341Z,50.90
2022-12-25T15:04:53.368Z,51.50
2022-12-25T15:07:26.940Z,50.90
2022-12-25T15:10:18.518Z,50.90
2022-12-25T15:12:43.630Z,50.90
2022-12-25T15:15:11.667Z,51.00
2022-12-25T15:17:39.503Z,50.90
2022-12-25T15:20:09.027Z,50.90
2022-12-25T15:23:02.448Z,50.90
2022-12-25T15:25:25.895Z,50.90
2022-12-25T15:27:53.601Z,50.90
2022-12-25T15:30:21.409Z,50.90
2022-12-25T15:32:49.105Z,50.90
2022-12-25T15:35:19.044Z,51.00
2022-12-25T15:37:46.762Z,50.90
2022-12-25T15:40:14.797Z,50.90
2022-12-25T15:42:45.012Z,50.90
2022-12-25T15:45:18.239Z,50.90
2022-12-25T15:47:45.974Z,51.50
2022-12-25T15:50:13.702Z,50.90
2022-12-25T15:52:41.379Z,50.90
2022-12-25T15:55:09.909Z,51.00
2022-12-25T15:57:37.748Z,51.00
2022-12-25T16:00:08.018Z,51.00
2022-12-25T16:02:41.967Z,50.90
2022-12-25T16:05:10.464Z,50.90
2022-12-25T16:07:38.437Z,50.90
2022-12-25T16:10:07.192Z,50.90
2022-12-25T16:12:34.905Z,50.90
2022-12-25T16:15:02.565Z,50.90
2022-12-25T16:17:31.558Z,50.90
2022-12-25T16:19:59.239Z,50.80
2022-12-25T16:22:26.922Z,50.90
2022-12-25T16:24:54.707Z,50.80
2022-12-25T16:27:22.562Z,50.80
2022-12-25T16:29:50.260Z,50.90
2022-12-25T16:32:17.960Z,50.80
2022-12-25T16:34:49.007Z,50.70
2022-12-25T16:37:16.682Z,50.60
2022-12-25T16:39:44.385Z,50.50
2022-12-25T16:42:12.085Z,50.50
2022-12-25T16:44:39.796Z,50.50
2022-12-25T16:47:07.488Z,50.50
2022-12-25T16:49:35.376Z,50.40
2022-12-25T16:52:04.532Z,50.50
2022-12-25T16:54:32.249Z,50.50
2022-12-25T16:56:59.939Z,50.40
2022-12-25T16:59:29.057Z,50.60
2022-12-25T17:01:56.859Z,50.70
2022-12-25T17:04:25.202Z,50.80
2022-12-25T17:06:52.881Z,50.90
2022-12-25T17:09:22.001Z,50.90
2022-12-25T17:11:49.685Z,51.00
2022-12-25T17:14:17.342Z,51.00
2022-12-25T17:16:45.105Z,51.00
2022-12-25T17:19:16.930Z,51.00
2022-12-25T17:21:44.600Z,51.00
2022-12-25T17:24:12.326Z,51.00
2022-12-25T17:26:41.589Z,51.00
2022-12-25T17:29:09.401Z,51.10
2022-12-25T17:31:37.069Z,51.10
2022-12-25T17:34:04.877Z,51.10
2022-12-25T17:36:32.756Z,51.10
2022-12-25T17:39:01.168Z,51.10
2022-12-25T17:41:28.957Z,51.10
2022-12-25T17:43:57.962Z,51.10
2022-12-25T17:46:26.330Z,51.10
2022-12-25T17:48:55.278Z,51.20
2022-12-25T17:51:23.940Z,51.20
2022-12-25T17:53:52.653Z,51.90
2022-12-25T17:56:20.795Z,51.30
2022-12-25T17:58:50.725Z,51.40
2022-12-25T18:01:19.933Z,51.40
2022-12-25T18:03:47.813Z,51.50
2022-12-25T18:06:16.664Z,51.50
2022-12-25T18:08:44.560Z,51.50
2022-12-25T18:11:15.154Z,51.50
2022-12-25T18:13:43.334Z,52.20
2022-12-25T18:16:11.023Z,51.60
2022-12-25T18:18:40.126Z,51.70
2022-12-25T18:21:08.262Z,51.70
2022-12-25T18:23:36.231Z,51.60
2022-12-25T18:26:04.105Z,51.70
2022-12-25T18:28:31.873Z,51.60
2022-12-25T18:31:00.000Z,51.60
2022-12-25T18:33:27.769Z,51.70
2022-12-25T18:35:59.554Z,51.70
2022-12-25T18:38:28.061Z,51.70
2022-12-25T18:40:55.873Z,51.70
2022-12-25T18:43:53.090Z,51.70
2022-12-25T18:46:11.275Z,51.70
2022-12-25T18:48:39.080Z,51.70
2022-12-25T18:51:09.310Z,51.70
2022-12-25T18:53:37.139Z,51.70
2022-12-25T18:56:06.656Z,51.70
2022-12-25T18:58:34.429Z,51.70
2022-12-25T19:01:02.148Z,51.70
2022-12-25T19:03:30.318Z,51.70
2022-12-25T19:05:57.983Z,51.70
2022-12-25T19:08:27.014Z,51.70
2022-12-25T19:10:54.818Z,51.70
2022-12-25T19:13:22.504Z,51.60
2022-12-25T19:15:50.216Z,51.60
2022-12-25T19:18:17.971Z,51.60
2022-12-25T19:20:45.664Z,51.60
2022-12-25T19:23:13.345Z,51.60
2022-12-25T19:25:42.322Z,51.60
2022-12-25T19:28:10.049Z,51.60
2022-12-25T19:30:38.647Z,51.60
2022-12-25T19:33:10.056Z,51.70
2022-12-25T19:35:41.696Z,51.70
2022-12-25T19:38:09.410Z,51.70
2022-12-25T19:40:38.471Z,51.70
2022-12-25T19:43:07.630Z,51.70
2022-12-25T19:45:35.348Z,51.70
2022-12-25T19:48:03.079Z,51.80
2022-12-25T19:50:32.651Z,51.80
2022-12-25T19:53:00.312Z,51.80
2022-12-25T19:55:27.949Z,51.80
2022-12-25T19:57:58.995Z,51.90
2022-12-25T20:00:28.152Z,51.90
2022-12-25T20:02:55.998Z,51.90
2022-12-25T20:05:23.736Z,52.00
2022-12-25T20:07:51.430Z,52.00
2022-12-25T20:10:19.131Z,52.00
2022-12-25T20:12:46.937Z,52.00
2022-12-25T20:15:14.629Z,51.90
2022-12-25T20:17:43.656Z,51.90
2022-12-25T20:20:13.084Z,51.90
2022-12-25T20:22:40.810Z,51.90
2022-12-25T20:25:10.994Z,51.90
2022-12-25T20:27:38.677Z,51.80
2022-12-25T20:30:07.559Z,51.80
2022-12-25T20:32:35.240Z,51.90
2022-12-25T20:35:04.665Z,51.90
2022-12-25T20:37:32.353Z,51.90
2022-12-25T20:40:00.036Z,51.90
2022-12-25T20:42:27.844Z,51.90
2022-12-25T20:44:55.571Z,52.00
2022-12-25T20:47:23.253Z,52.00
2022-12-25T20:49:50.955Z,52.10
2022-12-25T20:52:20.333Z,52.00
2022-12-25T20:54:48.007Z,51.90
2022-12-25T20:57:15.722Z,51.90
2022-12-25T20:59:43.599Z,51.90
2022-12-25T21:02:34.355Z,51.90
2022-12-25T21:04:59.497Z,51.90
2022-12-25T21:07:28.501Z,51.90
2022-12-25T21:09:56.206Z,51.90
2022-12-25T21:12:23.894Z,51.90
2022-12-25T21:14:51.595Z,51.90
2022-12-25T21:17:19.359Z,51.90
2022-12-25T21:19:47.125Z,51.90
2022-12-25T21:22:14.899Z,51.90
2022-12-25T21:24:43.923Z,51.90
2022-12-25T21:27:11.626Z,51.90
2022-12-25T21:29:39.353Z,51.90
2022-12-25T21:32:24.829Z,51.90
2022-12-25T21:34:52.545Z,51.90
2022-12-25T21:37:20.207Z,51.90
2022-12-25T21:39:51.230Z,51.90
2022-12-25T21:42:18.889Z,51.90
2022-12-25T21:44:46.666Z,52.00
2022-12-25T21:47:14.340Z,51.90
2022-12-25T21:50:14.295Z,52.00
2022-12-25T21:52:42.203Z,52.00
2022-12-25T21:55:11.353Z,51.90
2022-12-25T21:57:39.063Z,52.00
2022-12-25T22:00:07.851Z,52.00
2022-12-25T22:02:36.480Z,52.00
2022-12-25T22:05:04.562Z,52.00
2022-12-25T22:07:32.490Z,52.00
2022-12-25T22:10:00.229Z,52.00
2022-12-25T22:12:47.068Z,52.00
2022-12-25T22:15:14.793Z,52.00
2022-12-25T22:18:00.633Z,52.00
2022-12-25T22:20:29.997Z,52.00
2022-12-25T22:22:57.857Z,52.00
2022-12-25T22:25:25.628Z,52.60
2022-12-25T22:27:54.716Z,52.00
2022-12-25T22:30:24.209Z,52.00
2022-12-25T22:32:52.871Z,51.90
2022-12-25T22:35:20.706Z,51.90
2022-12-25T22:37:49.491Z,52.00
2022-12-25T22:40:18.061Z,51.90
2022-12-25T22:42:45.819Z,52.00
2022-12-25T22:45:14.969Z,51.90
2022-12-25T22:47:42.722Z,52.00
2022-12-25T22:50:10.957Z,51.90
2022-12-25T22:52:38.983Z,51.90
2022-12-25T22:55:08.035Z,51.90
2022-12-25T22:57:35.819Z,51.90
2022-12-25T23:00:03.601Z,51.90
2022-12-25T23:02:32.740Z,51.90
2022-12-25T23:05:00.527Z,51.80
2022-12-25T23:07:28.290Z,51.90
2022-12-25T23:09:55.975Z,51.90
2022-12-25T23:12:41.340Z,51.90
2022-12-25T23:15:09.986Z,51.90
2022-12-25T23:17:56.966Z,51.90
2022-12-25T23:20:42.352Z,51.90
2022-12-25T23:23:28.502Z,51.90
2022-12-25T23:26:08.564Z,52.60
2022-12-25T23:28:53.873Z,52.00
2022-12-25T23:31:23.511Z,52.10
2022-12-25T23:33:52.559Z,52.10
2022-12-25T23:36:20.211Z,52.10
2022-12-25T23:38:47.894Z,52.10
2022-12-25T23:41:15.588Z,52.10
2022-12-25T23:43:43.250Z,52.10
2022-12-25T23:46:10.955Z,52.10
2022-12-25T23:48:38.640Z,52.00
2022-12-25T23:51:08.247Z,52.00
2022-12-25T23:53:35.975Z,52.00
2022-12-25T23:56:03.978Z,52.00
2022-12-25T23:58:33.286Z,52.00
